Pelkie, Michigan
Current Conditions -  °F | °C
As of 10:22 PM on Monday 20 Oct 2014 (Local Time) from KCMX Reporting Station
Overcast Overcast  
Wind Chill: 37°   Ceiling: 1500
Heat Index: 42°   Visibility: 10mi
Dew Point: 35°   Wind: 9mph
Humidity: 76%   Direction: 20°NNE
Pressure: 30.07"   Gusts: 20mph
Location:  46.81°N, 88.64°W
Report Text: KCMX 210222Z AUTO 02008G17KT 10SM OVC015 06/02 A3007 RMK AO2 T00560017
Loading
Personal Weather Stations






























Interactive Weather Map
Tropical Storm Tracking
New forecast layout! Learn more

10-Day Weather Forecast

Advertisements
Track Severe Weather on mobile